sensor_id;sensor_type;location;lat;lon;timestamp;pressure;altitude;pressure_sealevel;temperature;humidity
9839;BME280;4958;48.150;11.506;2023-09-19T00:01:42;95070.09;;;20.15;69.61
9839;BME280;4958;48.150;11.506;2023-09-19T00:04:11;95073.03;;;20.19;69.72
9839;BME280;4958;48.150;11.506;2023-09-19T00:06:38;95056.53;;;20.18;69.06
9839;BME280;4958;48.150;11.506;2023-09-19T00:09:04;95016.25;;;20.14;67.74
9839;BME280;4958;48.150;11.506;2023-09-19T00:11:35;95013.69;;;20.19;67.89
9839;BME280;4958;48.150;11.506;2023-09-19T00:14:02;94995.66;;;20.23;67.66
9839;BME280;4958;48.150;11.506;2023-09-19T00:16:30;95003.78;;;20.26;67.52
9839;BME280;4958;48.150;11.506;2023-09-19T00:18:58;95007.97;;;20.27;67.63
9839;BME280;4958;48.150;11.506;2023-09-19T00:21:26;94998.84;;;20.30;67.27
9839;BME280;4958;48.150;11.506;2023-09-19T00:23:53;95015.84;;;20.32;67.34
9839;BME280;4958;48.150;11.506;2023-09-19T00:26:20;94994.69;;;20.34;67.05
9839;BME280;4958;48.150;11.506;2023-09-19T00:28:47;94985.03;;;20.34;66.30
9839;BME280;4958;48.150;11.506;2023-09-19T00:31:13;95006.50;;;20.37;66.91
9839;BME280;4958;48.150;11.506;2023-09-19T00:33:40;95000.78;;;20.40;66.71
9839;BME280;4958;48.150;11.506;2023-09-19T00:36:06;95007.56;;;20.41;66.64
9839;BME280;4958;48.150;11.506;2023-09-19T00:38:34;95011.75;;;20.37;66.98
9839;BME280;4958;48.150;11.506;2023-09-19T00:41:00;95019.09;;;20.40;67.19
9839;BME280;4958;48.150;11.506;2023-09-19T00:43:28;95038.44;;;20.39;67.72
9839;BME280;4958;48.150;11.506;2023-09-19T00:45:55;95055.94;;;20.38;68.09
9839;BME280;4958;48.150;11.506;2023-09-19T00:48:22;95073.34;;;20.27;68.44
9839;BME280;4958;48.150;11.506;2023-09-19T00:50:53;95084.81;;;20.26;68.63
9839;BME280;4958;48.150;11.506;2023-09-19T00:53:21;95086.91;;;20.24;68.99
9839;BME280;4958;48.150;11.506;2023-09-19T00:55:54;95096.25;;;20.15;69.31
9839;BME280;4958;48.150;11.506;2023-09-19T00:58:21;95102.81;;;20.23;69.38
9839;BME280;4958;48.150;11.506;2023-09-19T01:00:48;95125.09;;;20.25;69.25
9839;BME280;4958;48.150;11.506;2023-09-19T01:03:15;95136.31;;;20.26;69.68
9839;BME280;4958;48.150;11.506;2023-09-19T01:05:43;95134.75;;;20.25;70.13
9839;BME280;4958;48.150;11.506;2023-09-19T01:08:10;95161.09;;;20.18;70.25
9839;BME280;4958;48.150;11.506;2023-09-19T01:10:43;95168.66;;;20.15;70.94
9839;BME280;4958;48.150;11.506;2023-09-19T01:13:22;95185.38;;;20.14;71.38
9839;BME280;4958;48.150;11.506;2023-09-19T01:16:00;95183.84;;;20.18;71.28
9839;BME280;4958;48.150;11.506;2023-09-19T01:18:35;95190.28;;;20.10;71.20
9839;BME280;4958;48.150;11.506;2023-09-19T01:21:11;95200.69;;;20.05;71.64
9839;BME280;4958;48.150;11.506;2023-09-19T01:26:52;95217.28;;;19.94;72.59
9839;BME280;4958;48.150;11.506;2023-09-19T01:29:34;95218.94;;;20.00;72.45
9839;BME280;4958;48.150;11.506;2023-09-19T01:32:06;95239.47;;;19.91;73.41
9839;BME280;4958;48.150;11.506;2023-09-19T01:34:45;95251.50;;;19.92;73.27
9839;BME280;4958;48.150;11.506;2023-09-19T01:37:14;95250.72;;;19.92;73.22
9839;BME280;4958;48.150;11.506;2023-09-19T01:39:45;95232.19;;;19.93;72.63
9839;BME280;4958;48.150;11.506;2023-09-19T01:42:19;95230.28;;;19.89;72.72
9839;BME280;4958;48.150;11.506;2023-09-19T01:44:53;95233.94;;;19.88;73.01
9839;BME280;4958;48.150;11.506;2023-09-19T01:47:32;95233.63;;;19.84;72.52
9839;BME280;4958;48.150;11.506;2023-09-19T01:50:11;95243.00;;;19.80;73.08
9839;BME280;4958;48.150;11.506;2023-09-19T01:52:42;95243.00;;;19.80;72.54
9839;BME280;4958;48.150;11.506;2023-09-19T01:55:12;95238.13;;;19.89;72.36
9839;BME280;4958;48.150;11.506;2023-09-19T01:57:49;95231.31;;;19.88;72.36
9839;BME280;4958;48.150;11.506;2023-09-19T02:00:18;95227.59;;;19.84;72.21
9839;BME280;4958;48.150;11.506;2023-09-19T02:02:48;95217.47;;;19.87;71.85
9839;BME280;4958;48.150;11.506;2023-09-19T02:05:22;95209.94;;;19.91;71.54
9839;BME280;4958;48.150;11.506;2023-09-19T02:07:49;95199.00;;;19.94;71.28
9839;BME280;4958;48.150;11.506;2023-09-19T02:10:15;95200.28;;;19.91;70.85
9839;BME280;4958;48.150;11.506;2023-09-19T02:12:42;95197.72;;;19.96;70.94
9839;BME280;4958;48.150;11.506;2023-09-19T02:15:09;95192.97;;;19.93;70.83
9839;BME280;4958;48.150;11.506;2023-09-19T02:17:35;95190.69;;;19.97;71.01
9839;BME280;4958;48.150;11.506;2023-09-19T02:20:05;95188.88;;;20.02;70.80
9839;BME280;4958;48.150;11.506;2023-09-19T02:22:38;95189.16;;;20.01;70.99
9839;BME280;4958;48.150;11.506;2023-09-19T02:25:06;95188.09;;;20.02;70.93
9839;BME280;4958;48.150;11.506;2023-09-19T02:27:32;95182.38;;;20.05;70.50
9839;BME280;4958;48.150;11.506;2023-09-19T02:29:59;95193.09;;;20.04;70.57
9839;BME280;4958;48.150;11.506;2023-09-19T02:32:27;95185.00;;;20.05;70.58
9839;BME280;4958;48.150;11.506;2023-09-19T02:34:55;95182.34;;;20.00;70.46
9839;BME280;4958;48.150;11.506;2023-09-19T02:37:24;95185.38;;;19.92;70.25
9839;BME280;4958;48.150;11.506;2023-09-19T02:39:51;95187.44;;;19.90;70.49
9839;BME280;4958;48.150;11.506;2023-09-19T02:42:17;95196.81;;;19.86;70.91
9839;BME280;4958;48.150;11.506;2023-09-19T02:44:44;95194.50;;;19.89;70.85
9839;BME280;4958;48.150;11.506;2023-09-19T02:47:12;95201.00;;;19.87;70.99
9839;BME280;4958;48.150;11.506;2023-09-19T02:49:40;95202.81;;;19.86;71.10
9839;BME280;4958;48.150;11.506;2023-09-19T02:52:07;95199.97;;;19.88;71.02
9839;BME280;4958;48.150;11.506;2023-09-19T02:54:35;95223.16;;;19.84;71.13
9839;BME280;4958;48.150;11.506;2023-09-19T02:57:02;95221.34;;;19.85;71.30
9839;BME280;4958;48.150;11.506;2023-09-19T02:59:32;95221.91;;;19.87;71.50
9839;BME280;4958;48.150;11.506;2023-09-19T03:01:58;95222.13;;;19.85;71.43
9839;BME280;4958;48.150;11.506;2023-09-19T03:04:25;95221.09;;;19.86;71.30
9839;BME280;4958;48.150;11.506;2023-09-19T03:06:52;95219.53;;;19.85;71.24
9839;BME280;4958;48.150;11.506;2023-09-19T03:09:23;95216.91;;;19.85;71.27
9839;BME280;4958;48.150;11.506;2023-09-19T03:11:51;95215.06;;;19.81;71.37
9839;BME280;4958;48.150;11.506;2023-09-19T03:14:19;95215.53;;;19.78;71.43
9839;BME280;4958;48.150;11.506;2023-09-19T03:16:46;95203.91;;;19.69;70.58
9839;BME280;4958;48.150;11.506;2023-09-19T03:19:12;95202.34;;;19.67;71.02
9839;BME280;4958;48.150;11.506;2023-09-19T03:21:40;95206.53;;;19.69;70.98
9839;BME280;4958;48.150;11.506;2023-09-19T03:24:07;95199.41;;;19.64;70.82
9839;BME280;4958;48.150;11.506;2023-09-19T03:26:33;95210.41;;;19.66;70.79
9839;BME280;4958;48.150;11.506;2023-09-19T03:29:03;95214.56;;;19.62;71.08
9839;BME280;4958;48.150;11.506;2023-09-19T03:31:31;95198.03;;;19.56;70.86
9839;BME280;4958;48.150;11.506;2023-09-19T03:33:58;95201.97;;;19.59;70.46
9839;BME280;4958;48.150;11.506;2023-09-19T03:36:24;95202.22;;;19.57;70.70
9839;BME280;4958;48.150;11.506;2023-09-19T03:38:53;95206.97;;;19.60;70.68
9839;BME280;4958;48.150;11.506;2023-09-19T03:41:19;95208.22;;;19.58;71.00
9839;BME280;4958;48.150;11.506;2023-09-19T03:43:46;95215.03;;;19.59;70.81
9839;BME280;4958;48.150;11.506;2023-09-19T03:46:14;95201.59;;;19.50;70.98
9839;BME280;4958;48.150;11.506;2023-09-19T03:48:40;95213.16;;;19.54;70.81
9839;BME280;4958;48.150;11.506;2023-09-19T03:51:07;95217.41;;;19.60;70.64
9839;BME280;4958;48.150;11.506;2023-09-19T03:53:34;95220.97;;;19.54;70.93
9839;BME280;4958;48.150;11.506;2023-09-19T03:56:00;95220.19;;;19.54;70.89
9839;BME280;4958;48.150;11.506;2023-09-19T03:58:27;95216.63;;;19.60;70.66
9839;BME280;4958;48.150;11.506;2023-09-19T04:00:55;95223.72;;;19.64;70.49
9839;BME280;4958;48.150;11.506;2023-09-19T04:03:23;95231.53;;;19.64;70.87
9839;BME280;4958;48.150;11.506;2023-09-19T04:05:54;95237.28;;;19.61;71.55
9839;BME280;4958;48.150;11.506;2023-09-19T04:08:20;95224.22;;;19.61;70.67
9839;BME280;4958;48.150;11.506;2023-09-19T04:10:46;95230.72;;;19.59;70.96
9839;BME280;4958;48.150;11.506;2023-09-19T04:13:13;95236.16;;;19.57;71.19
9839;BME280;4958;48.150;11.506;2023-09-19T04:15:40;95243.53;;;19.60;71.11
9839;BME280;4958;48.150;11.506;2023-09-19T04:18:07;95250.25;;;19.56;71.36
9839;BME280;4958;48.150;11.506;2023-09-19T04:20:35;95256.19;;;19.52;71.39
9839;BME280;4958;48.150;11.506;2023-09-19T04:23:01;95255.06;;;19.48;71.36
9839;BME280;4958;48.150;11.506;2023-09-19T04:25:28;95250.31;;;19.45;71.53
9839;BME280;4958;48.150;11.506;2023-09-19T04:27:54;95255.84;;;19.48;71.47
9839;BME280;4958;48.150;11.506;2023-09-19T04:30:20;95261.66;;;19.50;71.51
9839;BME280;4958;48.150;11.506;2023-09-19T04:32:47;95262.88;;;19.48;71.51
9839;BME280;4958;48.150;11.506;2023-09-19T04:35:16;95264.81;;;19.52;71.28
9839;BME280;4958;48.150;11.506;2023-09-19T04:37:43;95270.72;;;19.48;71.63
9839;BME280;4958;48.150;11.506;2023-09-19T04:40:10;95259.25;;;19.49;71.61
9839;BME280;4958;48.150;11.506;2023-09-19T04:42:39;95277.16;;;19.40;71.40
9839;BME280;4958;48.150;11.506;2023-09-19T04:45:06;95277.00;;;19.30;71.58
9839;BME280;4958;48.150;11.506;2023-09-19T04:47:34;95277.63;;;19.20;71.88
9839;BME280;4958;48.150;11.506;2023-09-19T04:50:01;95290.50;;;19.27;72.03
9839;BME280;4958;48.150;11.506;2023-09-19T04:52:30;95296.84;;;19.31;71.88
9839;BME280;4958;48.150;11.506;2023-09-19T04:54:58;95293.22;;;19.32;71.93
9839;BME280;4958;48.150;11.506;2023-09-19T04:57:25;95294.63;;;19.40;71.33
9839;BME280;4958;48.150;11.506;2023-09-19T04:59:51;95278.41;;;19.38;71.24
9839;BME280;4958;48.150;11.506;2023-09-19T05:02:19;95289.47;;;19.45;71.21
9839;BME280;4958;48.150;11.506;2023-09-19T05:04:45;95294.97;;;19.43;71.20
9839;BME280;4958;48.150;11.506;2023-09-19T05:07:13;95298.50;;;19.37;71.04
9839;BME280;4958;48.150;11.506;2023-09-19T05:09:44;95300.81;;;19.33;71.33
9839;BME280;4958;48.150;11.506;2023-09-19T05:12:11;95308.97;;;19.37;71.45
9839;BME280;4958;48.150;11.506;2023-09-19T05:14:38;95314.50;;;19.41;71.46
9839;BME280;4958;48.150;11.506;2023-09-19T05:17:05;95303.03;;;19.42;70.75
9839;BME280;4958;48.150;11.506;2023-09-19T05:19:33;95303.56;;;19.44;70.82
9839;BME280;4958;48.150;11.506;2023-09-19T05:22:00;95304.34;;;19.44;70.77
9839;BME280;4958;48.150;11.506;2023-09-19T05:24:26;95312.97;;;19.45;70.71
9839;BME280;4958;48.150;11.506;2023-09-19T05:26:53;95317.41;;;19.44;71.16
9839;BME280;4958;48.150;11.506;2023-09-19T05:29:23;95308.78;;;19.44;70.54
9839;BME280;4958;48.150;11.506;2023-09-19T05:31:52;95337.22;;;19.40;71.55
9839;BME280;4958;48.150;11.506;2023-09-19T05:34:20;95330.63;;;19.38;70.97
9839;BME280;4958;48.150;11.506;2023-09-19T05:36:49;95311.72;;;19.30;70.65
9839;BME280;4958;48.150;11.506;2023-09-19T05:39:17;95332.84;;;19.29;71.04
9839;BME280;4958;48.150;11.506;2023-09-19T05:41:43;95334.50;;;19.35;70.72
9839;BME280;4958;48.150;11.506;2023-09-19T05:44:11;95324.78;;;19.30;70.83
9839;BME280;4958;48.150;11.506;2023-09-19T05:46:39;95334.97;;;19.32;70.95
9839;BME280;4958;48.150;11.506;2023-09-19T05:49:05;95341.31;;;19.36;71.14
9839;BME280;4958;48.150;11.506;2023-09-19T05:51:32;95328.25;;;19.36;70.66
9839;BME280;4958;48.150;11.506;2023-09-19T05:53:58;95325.19;;;19.39;70.59
9839;BME280;4958;48.150;11.506;2023-09-19T05:56:25;95337.69;;;19.37;70.70
9839;BME280;4958;48.150;11.506;2023-09-19T05:58:54;95343.03;;;19.47;70.85
9839;BME280;4958;48.150;11.506;2023-09-19T06:01:20;95338.25;;;19.56;70.50
9839;BME280;4958;48.150;11.506;2023-09-19T06:03:49;95324.66;;;19.54;69.89
9839;BME280;4958;48.150;11.506;2023-09-19T06:06:16;95331.53;;;19.60;70.09
9839;BME280;4958;48.150;11.506;2023-09-19T06:08:42;95324.00;;;19.63;69.76
9839;BME280;4958;48.150;11.506;2023-09-19T06:11:10;95327.09;;;19.60;69.81
9839;BME280;4958;48.150;11.506;2023-09-19T06:13:36;95332.88;;;19.62;70.23
9839;BME280;4958;48.150;11.506;2023-09-19T06:16:04;95338.63;;;19.64;70.25
9839;BME280;4958;48.150;11.506;2023-09-19T06:18:31;95326.13;;;19.66;70.09
9839;BME280;4958;48.150;11.506;2023-09-19T06:21:00;95328.75;;;19.66;70.03
9839;BME280;4958;48.150;11.506;2023-09-19T06:23:32;95324.78;;;19.64;69.88
9839;BME280;4958;48.150;11.506;2023-09-19T06:25:59;95346.97;;;19.61;70.07
9839;BME280;4958;48.150;11.506;2023-09-19T06:28:25;95335.78;;;19.66;69.98
9839;BME280;4958;48.150;11.506;2023-09-19T06:30:53;95339.06;;;19.56;70.04
9839;BME280;4958;48.150;11.506;2023-09-19T06:33:20;95348.47;;;19.57;70.29
9839;BME280;4958;48.150;11.506;2023-09-19T06:35:47;95341.97;;;19.60;70.08
9839;BME280;4958;48.150;11.506;2023-09-19T06:38:14;95329.16;;;19.58;69.89
9839;BME280;4958;48.150;11.506;2023-09-19T06:40:44;95353.50;;;19.64;70.14
9839;BME280;4958;48.150;11.506;2023-09-19T06:43:11;95345.28;;;19.72;69.76
9839;BME280;4958;48.150;11.506;2023-09-19T06:45:37;95349.38;;;19.85;69.67
9839;BME280;4958;48.150;11.506;2023-09-19T06:48:05;95347.53;;;20.02;69.43
9839;BME280;4958;48.150;11.506;2023-09-19T06:50:32;95327.28;;;19.92;69.46
9839;BME280;4958;48.150;11.506;2023-09-19T06:52:59;95341.22;;;19.98;69.11
9839;BME280;4958;48.150;11.506;2023-09-19T06:55:29;95313.53;;;20.41;68.23
9839;BME280;4958;48.150;11.506;2023-09-19T06:57:56;95268.22;;;20.57;66.75
9839;BME280;4958;48.150;11.506;2023-09-19T07:00:23;95263.00;;;20.89;66.46
9839;BME280;4958;48.150;11.506;2023-09-19T07:03:01;95251.16;;;20.81;66.26
9839;BME280;4958;48.150;11.506;2023-09-19T07:05:29;95274.72;;;20.54;66.78
9839;BME280;4958;48.150;11.506;2023-09-19T07:07:56;95326.53;;;20.35;68.61
9839;BME280;4958;48.150;11.506;2023-09-19T07:10:24;95335.41;;;20.13;68.73
9839;BME280;4958;48.150;11.506;2023-09-19T07:12:59;95351.13;;;19.96;69.13
9839;BME280;4958;48.150;11.506;2023-09-19T07:15:25;95385.25;;;19.89;70.18
9839;BME280;4958;48.150;11.506;2023-09-19T07:17:52;95381.28;;;19.87;69.84
9839;BME280;4958;48.150;11.506;2023-09-19T07:20:19;95389.06;;;19.82;69.96
9839;BME280;4958;48.150;11.506;2023-09-19T07:22:46;95383.13;;;19.86;69.37
9839;BME280;4958;48.150;11.506;2023-09-19T07:25:13;95387.78;;;19.84;69.69
9839;BME280;4958;48.150;11.506;2023-09-19T07:27:40;95376.31;;;19.85;69.79
9839;BME280;4958;48.150;11.506;2023-09-19T07:30:09;95389.63;;;20.00;69.77
9839;BME280;4958;48.150;11.506;2023-09-19T07:32:37;95380.75;;;20.23;69.27
9839;BME280;4958;48.150;11.506;2023-09-19T07:35:04;95356.34;;;20.34;68.49
9839;BME280;4958;48.150;11.506;2023-09-19T07:37:32;95352.59;;;20.47;68.24
9839;BME280;4958;48.150;11.506;2023-09-19T07:39:58;95347.41;;;20.52;68.26
9839;BME280;4958;48.150;11.506;2023-09-19T07:42:25;95350.69;;;20.64;68.19
9839;BME280;4958;48.150;11.506;2023-09-19T07:44:51;95331.03;;;20.62;67.86
9839;BME280;4958;48.150;11.506;2023-09-19T07:47:20;95346.69;;;20.57;67.95
9839;BME280;4958;48.150;11.506;2023-09-19T07:49:47;95348.63;;;20.66;67.78
9839;BME280;4958;48.150;11.506;2023-09-19T07:52:13;95337.28;;;20.83;67.76
9839;BME280;4958;48.150;11.506;2023-09-19T07:54:40;95326.56;;;21.11;66.73
9839;BME280;4958;48.150;11.506;2023-09-19T07:57:09;95311.25;;;21.25;66.42
9839;BME280;4958;48.150;11.506;2023-09-19T07:59:35;95259.19;;;21.76;64.76
9839;BME280;4958;48.150;11.506;2023-09-19T08:02:03;95234.91;;;21.95;64.15
9839;BME280;4958;48.150;11.506;2023-09-19T08:04:31;95219.63;;;21.72;64.29
9839;BME280;4958;48.150;11.506;2023-09-19T08:06:58;95263.81;;;21.53;65.44
9839;BME280;4958;48.150;11.506;2023-09-19T08:09:28;95280.13;;;21.28;65.33
9839;BME280;4958;48.150;11.506;2023-09-19T08:11:58;95300.38;;;21.11;66.31
9839;BME280;4958;48.150;11.506;2023-09-19T08:14:27;95323.41;;;21.09;67.13
9839;BME280;4958;48.150;11.506;2023-09-19T08:16:56;95323.25;;;20.94;66.51
9839;BME280;4958;48.150;11.506;2023-09-19T08:19:23;95311.66;;;20.85;66.84
9839;BME280;4958;48.150;11.506;2023-09-19T08:21:55;95312.19;;;21.14;66.24
9839;BME280;4958;48.150;11.506;2023-09-19T08:24:24;95272.28;;;21.76;64.81
9839;BME280;4958;48.150;11.506;2023-09-19T08:26:50;95181.25;;;22.18;62.46
9839;BME280;4958;48.150;11.506;2023-09-19T08:29:17;95153.25;;;22.59;61.31
9839;BME280;4958;48.150;11.506;2023-09-19T08:31:43;95108.59;;;23.10;59.95
9839;BME280;4958;48.150;11.506;2023-09-19T08:34:10;95069.84;;;23.61;59.08
9839;BME280;4958;48.150;11.506;2023-09-19T08:36:36;94990.38;;;23.74;57.33
9839;BME280;4958;48.150;11.506;2023-09-19T08:39:05;94959.81;;;23.84;56.59
9839;BME280;4958;48.150;11.506;2023-09-19T08:41:31;94906.97;;;24.09;55.69
9839;BME280;4958;48.150;11.506;2023-09-19T08:43:58;94885.84;;;24.24;55.19
9839;BME280;4958;48.150;11.506;2023-09-19T08:46:29;94840.63;;;24.17;54.34
9839;BME280;4958;48.150;11.506;2023-09-19T08:49:03;94849.53;;;24.21;54.42
9839;BME280;4958;48.150;11.506;2023-09-19T08:51:34;94833.78;;;24.64;54.04
9839;BME280;4958;48.150;11.506;2023-09-19T08:54:07;94799.50;;;24.69;53.43
9839;BME280;4958;48.150;11.506;2023-09-19T08:56:35;94832.25;;;24.39;54.02
9839;BME280;4958;48.150;11.506;2023-09-19T08:59:05;94814.03;;;24.19;54.07
9839;BME280;4958;48.150;11.506;2023-09-19T09:01:33;94895.69;;;23.80;56.02
9839;BME280;4958;48.150;11.506;2023-09-19T09:04:01;94949.31;;;23.39;56.55
9839;BME280;4958;48.150;11.506;2023-09-19T09:06:29;94957.66;;;22.97;57.15
9839;BME280;4958;48.150;11.506;2023-09-19T09:08:57;94971.94;;;22.61;57.95
9839;BME280;4958;48.150;11.506;2023-09-19T09:11:26;94967.56;;;23.11;56.62
9839;BME280;4958;48.150;11.506;2023-09-19T09:13:53;94904.06;;;23.08;55.76
9839;BME280;4958;48.150;11.506;2023-09-19T09:16:19;94916.75;;;22.86;56.03
9839;BME280;4958;48.150;11.506;2023-09-19T09:18:46;94922.31;;;22.64;56.17
9839;BME280;4958;48.150;11.506;2023-09-19T09:21:17;94955.69;;;22.44;56.91
9839;BME280;4958;48.150;11.506;2023-09-19T09:23:46;94920.44;;;22.85;56.26
9839;BME280;4958;48.150;11.506;2023-09-19T09:26:13;94890.72;;;22.95;56.11
9839;BME280;4958;48.150;11.506;2023-09-19T09:28:46;94866.38;;;22.84;55.31
9839;BME280;4958;48.150;11.506;2023-09-19T09:31:24;94846.72;;;23.21;54.36
9839;BME280;4958;48.150;11.506;2023-09-19T09:33:54;94845.16;;;23.49;54.71
9839;BME280;4958;48.150;11.506;2023-09-19T09:36:33;94796.09;;;23.73;53.36
9839;BME280;4958;48.150;11.506;2023-09-19T09:39:00;94772.44;;;23.44;53.16
9839;BME280;4958;48.150;11.506;2023-09-19T09:41:41;94782.63;;;23.51;53.73
9839;BME280;4958;48.150;11.506;2023-09-19T09:44:14;94779.47;;;23.83;52.97
9839;BME280;4958;48.150;11.506;2023-09-19T09:46:43;94754.09;;;24.16;52.44
9839;BME280;4958;48.150;11.506;2023-09-19T09:49:38;94768.69;;;24.51;52.82
9839;BME280;4958;48.150;11.506;2023-09-19T09:52:06;94739.31;;;24.81;52.17
9839;BME280;4958;48.150;11.506;2023-09-19T09:54:35;94673.59;;;24.90;50.61
9839;BME280;4958;48.150;11.506;2023-09-19T09:57:04;94700.44;;;24.73;50.96
9839;BME280;4958;48.150;11.506;2023-09-19T09:59:46;94754.94;;;24.11;52.79
9839;BME280;4958;48.150;11.506;2023-09-19T10:02:13;94727.72;;;23.78;52.18
9839;BME280;4958;48.150;11.506;2023-09-19T10:04:45;94778.41;;;23.50;53.04
9839;BME280;4958;48.150;11.506;2023-09-19T10:07:25;94816.56;;;23.47;53.60
9839;BME280;4958;48.150;11.506;2023-09-19T10:09:57;94825.13;;;23.63;53.70
9839;BME280;4958;48.150;11.506;2023-09-19T10:12:36;94788.59;;;23.61;53.29
9839;BME280;4958;48.150;11.506;2023-09-19T10:15:07;94812.50;;;23.65;53.68
9839;BME280;4958;48.150;11.506;2023-09-19T10:17:36;94772.16;;;23.74;52.41
9839;BME280;4958;48.150;11.506;2023-09-19T10:20:04;94759.06;;;23.69;52.53
9839;BME280;4958;48.150;11.506;2023-09-19T10:22:43;94747.69;;;24.03;52.12
9839;BME280;4958;48.150;11.506;2023-09-19T10:25:23;94753.59;;;24.14;52.01
9839;BME280;4958;48.150;11.506;2023-09-19T10:27:51;94777.50;;;24.17;52.33
9839;BME280;4958;48.150;11.506;2023-09-19T10:30:20;94729.19;;;24.08;51.66
9839;BME280;4958;48.150;11.506;2023-09-19T10:32:56;94737.59;;;24.10;52.06
9839;BME280;4958;48.150;11.506;2023-09-19T10:35:23;94761.44;;;23.95;52.50
9839;BME280;4958;48.150;11.506;2023-09-19T10:37:51;94767.19;;;23.73;52.74
9839;BME280;4958;48.150;11.506;2023-09-19T10:40:20;94786.41;;;23.39;53.42
9839;BME280;4958;48.150;11.506;2023-09-19T10:42:52;94810.47;;;23.18;53.61
9839;BME280;4958;48.150;11.506;2023-09-19T10:45:21;94801.03;;;23.17;53.31
9839;BME280;4958;48.150;11.506;2023-09-19T10:47:51;94822.78;;;23.22;53.57
9839;BME280;4958;48.150;11.506;2023-09-19T10:50:19;94830.78;;;23.41;53.71
9839;BME280;4958;48.150;11.506;2023-09-19T10:52:47;94818.63;;;23.50;53.61
9839;BME280;4958;48.150;11.506;2023-09-19T10:55:16;94776.41;;;23.70;52.55
9839;BME280;4958;48.150;11.506;2023-09-19T10:57:44;94781.81;;;23.84;52.32
9839;BME280;4958;48.150;11.506;2023-09-19T11:00:12;94763.28;;;23.94;52.05
9839;BME280;4958;48.150;11.506;2023-09-19T11:03:17;94733.53;;;23.99;51.56
9839;BME280;4958;48.150;11.506;2023-09-19T11:06:07;94775.47;;;24.09;52.07
9839;BME280;4958;48.150;11.506;2023-09-19T11:08:52;94787.50;;;24.15;51.94
9839;BME280;4958;48.150;11.506;2023-09-19T11:11:44;94698.34;;;24.14;51.12
9839;BME280;4958;48.150;11.506;2023-09-19T11:14:40;94563.66;;;23.98;49.15
9839;BME280;4958;48.150;11.506;2023-09-19T11:17:41;94569.25;;;24.10;48.97
9839;BME280;4958;48.150;11.506;2023-09-19T11:20:21;94497.31;;;24.20;47.68
9839;BME280;4958;48.150;11.506;2023-09-19T11:23:19;94528.16;;;24.33;48.36
9839;BME280;4958;48.150;11.506;2023-09-19T11:25:48;94531.44;;;24.25;48.23
9839;BME280;4958;48.150;11.506;2023-09-19T11:28:30;94528.88;;;24.20;48.19
9839;BME280;4958;48.150;11.506;2023-09-19T11:30:57;94510.81;;;24.32;48.24
9839;BME280;4958;48.150;11.506;2023-09-19T11:33:25;94524.72;;;24.65;47.89
9839;BME280;4958;48.150;11.506;2023-09-19T11:36:06;94477.44;;;24.60;47.35
9839;BME280;4958;48.150;11.506;2023-09-19T11:38:58;94446.81;;;24.36;47.00
9839;BME280;4958;48.150;11.506;2023-09-19T11:41:37;94483.75;;;24.13;47.56
9839;BME280;4958;48.150;11.506;2023-09-19T11:44:33;94496.81;;;24.18;47.65
9839;BME280;4958;48.150;11.506;2023-09-19T11:47:06;94498.19;;;23.96;47.81
9839;BME280;4958;48.150;11.506;2023-09-19T11:49:32;94520.94;;;23.87;48.05
9839;BME280;4958;48.150;11.506;2023-09-19T11:52:02;94527.84;;;23.83;48.61
9839;BME280;4958;48.150;11.506;2023-09-19T11:54:31;94541.91;;;23.92;48.69
9839;BME280;4958;48.150;11.506;2023-09-19T11:56:58;94549.09;;;24.24;48.58
9839;BME280;4958;48.150;11.506;2023-09-19T11:59:26;94584.00;;;24.62;49.08
9839;BME280;4958;48.150;11.506;2023-09-19T12:01:56;94464.06;;;24.84;46.69
9839;BME280;4958;48.150;11.506;2023-09-19T12:04:33;94417.19;;;24.72;46.31
9839;BME280;4958;48.150;11.506;2023-09-19T12:07:05;94441.56;;;24.50;46.11
9839;BME280;4958;48.150;11.506;2023-09-19T12:09:38;94472.81;;;24.38;46.70
9839;BME280;4958;48.150;11.506;2023-09-19T12:12:05;94473.69;;;24.33;46.71
9839;BME280;4958;48.150;11.506;2023-09-19T12:14:32;94454.50;;;24.33;46.79
9839;BME280;4958;48.150;11.506;2023-09-19T12:16:59;94456.53;;;24.36;46.62
9839;BME280;4958;48.150;11.506;2023-09-19T12:19:27;94440.69;;;24.41;46.06
9839;BME280;4958;48.150;11.506;2023-09-19T12:21:55;94434.81;;;24.44;46.03
9839;BME280;4958;48.150;11.506;2023-09-19T12:24:25;94432.19;;;24.44;46.15
9839;BME280;4958;48.150;11.506;2023-09-19T12:26:52;94417.88;;;24.36;46.06
9839;BME280;4958;48.150;11.506;2023-09-19T12:29:20;94396.22;;;24.53;45.31
9839;BME280;4958;48.150;11.506;2023-09-19T12:31:50;94435.31;;;24.46;46.16
9839;BME280;4958;48.150;11.506;2023-09-19T12:34:20;94479.44;;;24.35;47.04
9839;BME280;4958;48.150;11.506;2023-09-19T12:36:47;94493.75;;;24.29;47.26
9839;BME280;4958;48.150;11.506;2023-09-19T12:39:24;94492.75;;;24.25;47.06
9839;BME280;4958;48.150;11.506;2023-09-19T12:41:51;94510.16;;;24.40;47.47
9839;BME280;4958;48.150;11.506;2023-09-19T12:44:18;94512.16;;;24.75;47.03
9839;BME280;4958;48.150;11.506;2023-09-19T12:46:45;94475.50;;;25.06;46.76
9839;BME280;4958;48.150;11.506;2023-09-19T12:49:15;94446.16;;;25.13;45.99
9839;BME280;4958;48.150;11.506;2023-09-19T12:51:43;94425.25;;;25.17;45.97
9839;BME280;4958;48.150;11.506;2023-09-19T12:54:10;94439.38;;;25.34;46.01
9839;BME280;4958;48.150;11.506;2023-09-19T12:56:41;94447.78;;;25.23;45.72
9839;BME280;4958;48.150;11.506;2023-09-19T12:59:10;94480.78;;;25.20;46.14
9839;BME280;4958;48.150;11.506;2023-09-19T13:01:39;94547.19;;;25.44;47.64
9839;BME280;4958;48.150;11.506;2023-09-19T13:04:16;94598.56;;;25.33;48.58
9839;BME280;4958;48.150;11.506;2023-09-19T13:06:45;94625.78;;;25.29;48.58
9839;BME280;4958;48.150;11.506;2023-09-19T13:09:14;94636.97;;;25.07;49.44
9839;BME280;4958;48.150;11.506;2023-09-19T13:11:43;94677.13;;;25.18;49.74
9839;BME280;4958;48.150;11.506;2023-09-19T13:14:16;94666.00;;;25.21;49.55
9839;BME280;4958;48.150;11.506;2023-09-19T13:16:58;94620.78;;;25.41;49.10
9839;BME280;4958;48.150;11.506;2023-09-19T13:19:35;94643.56;;;25.51;49.28
9839;BME280;4958;48.150;11.506;2023-09-19T13:22:02;94639.34;;;25.50;49.05
9839;BME280;4958;48.150;11.506;2023-09-19T13:24:29;94637.59;;;25.45;49.12
9839;BME280;4958;48.150;11.506;2023-09-19T13:26:57;94610.09;;;25.37;49.06